MLBA4: Mulberry River at Mulberry, AR

                                SHEF ID:       MLBA4     Mulberry River near Mulberry. AR
STATION TYPE: Stream Gauge

PRECIP STAGE RIV-FLOW BAT-LOAD
in ft cfs volt
Ccp-Rev Ccp-Rev Ccp-Rev Ccp-Rev
(America/Chicago)
06/27 00:00 0.00 3.08 1188 13.41
06/27 01:00 0.00 3.06 1176 13.41
06/27 02:00 0.00 3.03 1158 13.42
06/27 03:00 0.00 3.01 1146 13.42
06/27 04:00 0.00 3.01 1146 13.42
06/27 05:00 0.00 3.01 1146 13.42
06/27 06:00 0.00 2.99 1135 13.42
06/27 07:00 0.00 2.99 1135 13.41
06/27 08:00 0.45 3.02 1152 13.42
06/27 09:00 0.00 3.05 1170 13.42
06/27 10:00 0.01 3.03 1158 13.43
06/27 11:00 0.00 3.06 1176 13.42
06/27 12:00 0.00 2.98 1129 13.42
06/27 13:00 0.00 2.98 1129 13.42
06/27 14:00 0.00 3.03 1158 13.41
06/27 15:00 0.00 3.27 1304 13.40
06/27 16:00 0.00 3.45 1418 13.39
06/27 17:00 0.00 3.48 1438 13.39
06/27 18:00 0.00 3.46 1425 13.37
06/27 19:00 0.00 3.40 1386 13.36
06/27 20:00 0.00 3.42 1399 13.35
06/27 21:00 0.00 3.41 1392 13.36
06/27 22:00 0.00 3.56 1491 13.36
06/27 23:00 0.00 3.85 1693 13.38
Data processed at Sun 28Jun2026 04:40 GMT

NOTICE: If you are parsing this page

Please convert to using our Data API. Starting early 2026 we will be migrating to: https://water.usace.army.mil with modern pages rendered in JavaScript. When this migration completes you will no longer be able to scrape this page! CWMSDataAPI (CDA)

Timeseries IDs (TSIDs)

TSIDs used from left to right in the data table
MULB.Precip-Inc.Total.1Hour.1Hour.Ccp-Rev
MULB.Stage.Inst.1Hour.0.Ccp-Rev
MULB.Flow.Inst.1Hour.0.Ccp-Rev
MULB.Volt-Battery Load.Inst.1Hour.0.Ccp-Rev

                            

All information presented herein is the property of the government of the United States of America and may be revised or deleted at any time without prior notice. Dissemination of this information without the expressed written consent of the Public Affairs Office, Tulsa District U.S. Army Corps of Engineers is strictly prohibited. These data are gathered electronically and, as presented, have NOT undergone any form of quality control. These data are NOT guaranteed to be valid or correct.